Time;durP1;ratioP1;P1;durP2;ratioP2;P2;SDS_P1;SDS_P2;PMS_P1;PMS_P2;Temp;Humidity;BMP_temperature;BMP_pressure;BME280_temperature;BME280_humidity;BME280_pressure;Samples;Min_cycle;Max_cycle;Signal;HPM_P1;HPM_P2
2022/09/22 00:00:12;;;;;;;4.06;3.72;;;;;;;11.48;62.46;100630.75;457393;116;923334;-77
2022/09/22 00:01:18;;;;;;;4.24;3.85;;;;;;;11.49;62.52;100628.86;457461;114;922982;-77
2022/09/22 00:02:21;;;;;;;4.48;4.11;;;;;;;11.49;62.54;100623.39;457237;116;922742;-77
2022/09/22 00:03:25;;;;;;;4.98;3.84;;;;;;;11.49;62.52;100624.23;457456;116;922457;-77
2022/09/22 00:04:28;;;;;;;4.10;3.80;;;;;;;11.51;62.42;100629.48;457384;115;922909;-77
2022/09/22 00:05:31;;;;;;;4.91;3.99;;;;;;;11.51;62.41;100626.75;457429;115;922868;-78
2022/09/22 00:06:38;;;;;;;4.83;4.41;;;;;;;11.52;62.49;100628.44;457445;115;923488;-77
2022/09/22 00:07:41;;;;;;;4.56;4.18;;;;;;;11.53;62.50;100630.92;457281;116;923498;-77
2022/09/22 00:08:52;;;;;;;3.97;3.64;;;;;;;11.55;62.45;100627.98;457486;115;923015;-77
2022/09/22 00:09:51;;;;;;;4.96;4.43;;;;;;;11.55;62.39;100623.36;456778;115;922506;-78
2022/09/22 00:11:02;;;;;;;4.48;4.03;;;;;;;11.57;62.28;100634.06;457397;114;922549;-77
2022/09/22 00:12:05;;;;;;;4.88;4.47;;;;;;;11.56;62.16;100633.23;457381;116;922651;-77
2022/09/22 00:13:08;;;;;;;4.81;4.41;;;;;;;11.53;61.90;100632.81;457462;115;922904;-77
2022/09/22 00:14:14;;;;;;;3.72;3.44;;;;;;;11.50;61.78;100642.30;457491;115;922701;-77
2022/09/22 00:15:17;;;;;;;4.74;3.91;;;;;;;11.47;61.70;100634.52;456083;116;922529;-77
2022/09/22 00:16:27;;;;;;;4.02;3.68;;;;;;;11.44;61.72;100631.41;457436;116;922638;-77
2022/09/22 00:17:30;;;;;;;4.72;4.29;;;;;;;11.43;61.79;100635.19;456887;116;922887;-77
2022/09/22 00:18:34;;;;;;;4.77;3.99;;;;;;;11.44;61.92;100634.14;457367;116;922557;-77
2022/09/22 00:19:38;;;;;;;4.57;4.06;;;;;;;11.45;62.01;100631.20;457298;116;922537;-77
2022/09/22 00:20:41;;;;;;;5.46;3.76;;;;;;;11.47;62.07;100631.80;457286;116;923480;-78
2022/09/22 00:21:45;;;;;;;6.19;3.36;;;;;;;11.50;62.12;100633.27;457324;116;930548;-77
2022/09/22 00:22:50;;;;;;;3.81;3.48;;;;;;;11.52;62.06;100633.89;457312;116;923318;-77
2022/09/22 00:23:54;;;;;;;3.78;3.29;;;;;;;11.54;62.01;100638.06;457263;116;922817;-77
2022/09/22 00:24:58;;;;;;;3.59;3.27;;;;;;;11.58;61.92;100635.72;457248;114;922503;-77
2022/09/22 00:26:06;;;;;;;3.97;3.33;;;;;;;11.60;61.77;100636.34;457160;116;922647;-77
2022/09/22 00:27:09;;;;;;;3.56;3.26;;;;;;;11.61;61.59;100638.02;457039;116;922970;-77
2022/09/22 00:28:12;;;;;;;3.61;3.28;;;;;;;11.61;61.37;100640.76;457242;116;922937;-77
2022/09/22 00:29:16;;;;;;;3.36;3.09;;;;;;;11.59;61.27;100645.59;457239;116;923021;-77
2022/09/22 00:30:19;;;;;;;3.56;3.26;;;;;;;11.58;61.15;100646.64;454629;115;922508;-77
2022/09/22 00:31:24;;;;;;;3.98;3.62;;;;;;;11.55;61.05;100639.74;455402;116;922582;-77
2022/09/22 00:32:27;;;;;;;3.50;3.26;;;;;;;11.53;61.05;100646.47;457150;116;922832;-77
2022/09/22 00:33:30;;;;;;;3.96;3.65;;;;;;;11.51;61.04;100634.94;457299;116;922904;-77
2022/09/22 00:34:32;;;;;;;4.31;4.01;;;;;;;11.49;61.01;100634.31;466423;113;922688;-77
2022/09/22 00:35:37;;;;;;;3.94;3.48;;;;;;;11.45;60.92;100633.92;466419;113;922586;-77
2022/09/22 00:36:40;;;;;;;4.24;3.58;;;;;;;11.43;60.88;100637.92;466431;113;923099;-77
2022/09/22 00:37:42;;;;;;;4.42;3.69;;;;;;;11.40;60.90;100636.48;466549;113;922515;-77
2022/09/22 00:38:45;;;;;;;3.39;3.16;;;;;;;11.38;60.95;100629.55;466477;113;922983;-78
2022/09/22 00:39:49;;;;;;;4.20;3.90;;;;;;;11.35;60.92;100621.81;466447;113;922481;-78
2022/09/22 00:40:52;;;;;;;3.65;3.35;;;;;;;11.34;60.91;100625.59;466448;113;922612;-77
2022/09/22 00:41:54;;;;;;;4.19;3.87;;;;;;;11.32;61.09;100624.96;466485;113;923331;-78
2022/09/22 00:43:16;;;;;;;4.03;3.72;;;;;;;11.30;61.09;100625.20;466439;113;922525;-78
2022/09/22 00:44:35;;;;;;;3.79;3.45;;;;;;;11.29;61.19;100626.25;466273;113;923090;-77
2022/09/22 00:45:38;;;;;;;3.87;3.47;;;;;;;11.28;61.49;100616.39;466206;113;923020;-78
2022/09/22 00:46:43;;;;;;;3.47;3.17;;;;;;;11.30;61.65;100620.55;466464;113;922518;-78
2022/09/22 00:47:46;;;;;;;3.74;3.43;;;;;;;11.33;61.83;100618.45;466260;113;923064;-78
2022/09/22 00:48:56;;;;;;;3.52;3.22;;;;;;;11.36;61.83;100618.03;466406;113;922929;-78
2022/09/22 00:50:17;;;;;;;3.64;3.34;;;;;;;11.39;61.84;100620.31;466235;113;930521;-78
2022/09/22 00:51:24;;;;;;;7.19;4.02;;;;;;;11.42;61.80;100611.67;466279;113;922926;-77
2022/09/22 00:52:39;;;;;;;4.13;3.79;;;;;;;11.42;61.71;100617.13;459194;113;922574;-78
2022/09/22 00:53:43;;;;;;;3.59;3.28;;;;;;;11.41;61.54;100610.83;455438;116;922622;-78
2022/09/22 00:54:47;;;;;;;3.76;3.37;;;;;;;11.38;61.35;100619.47;455517;116;922947;-78
2022/09/22 00:55:59;;;;;;;3.95;3.64;;;;;;;11.35;61.36;100610.89;455441;116;930591;-78
2022/09/22 00:57:14;;;;;;;3.31;3.01;;;;;;;11.33;61.41;100613.83;455452;116;922482;-78
2022/09/22 00:58:20;;;;;;;4.33;3.26;;;;;;;11.32;61.50;100612.16;455461;116;922525;-78
2022/09/22 00:59:25;;;;;;;3.91;3.61;;;;;;;11.32;61.56;100609.42;455441;116;922584;-78
2022/09/22 01:00:28;;;;;;;4.11;3.31;;;;;;;11.34;61.66;100609.22;455414;116;923031;-78
2022/09/22 01:01:35;;;;;;;3.43;3.16;;;;;;;11.37;61.73;100614.22;446344;118;925746;-77
2022/09/22 01:02:36;;;;;;;3.61;3.31;;;;;;;11.38;61.84;100611.28;446883;116;922952;-78
2022/09/22 01:03:41;;;;;;;3.58;3.27;;;;;;;11.41;61.81;100610.02;455592;116;922474;-78
2022/09/22 01:04:45;;;;;;;3.94;2.92;;;;;;;11.43;61.76;100606.00;453816;116;923081;-78
2022/09/22 01:05:51;;;;;;;3.41;3.11;;;;;;;11.45;61.70;100612.09;454101;116;922788;-78
2022/09/22 01:06:57;;;;;;;3.43;3.18;;;;;;;11.48;61.62;100614.36;455428;116;923035;-78
2022/09/22 01:08:01;;;;;;;3.85;3.51;;;;;;;11.49;61.51;100607.02;455423;116;922941;-77
2022/09/22 01:09:05;;;;;;;3.16;2.85;;;;;;;11.51;61.43;100610.37;455542;116;922577;-78
2022/09/22 01:10:10;;;;;;;3.26;3.04;;;;;;;11.51;61.43;100610.37;455450;116;922837;-78
2022/09/22 01:11:14;;;;;;;3.31;3.06;;;;;;;11.50;61.37;100600.50;455527;116;922479;-78
2022/09/22 01:12:18;;;;;;;4.01;3.34;;;;;;;11.49;61.33;100602.39;455528;116;923040;-78
2022/09/22 01:13:28;;;;;;;3.56;3.26;;;;;;;11.51;61.38;100604.91;445511;118;922519;-78
2022/09/22 01:14:55;;;;;;;3.73;3.43;;;;;;;11.52;61.38;100599.20;446685;116;923401;-77
2022/09/22 01:16:08;;;;;;;3.29;3.00;;;;;;;11.53;61.32;100600.88;456582;114;923061;-78
2022/09/22 01:17:33;;;;;;;3.59;3.29;;;;;;;11.52;61.23;100596.47;456665;115;922867;-77
2022/09/22 01:18:52;;;;;;;3.90;3.57;;;;;;;11.53;61.31;100594.58;457163;116;922513;-77
2022/09/22 01:20:11;;;;;;;3.71;3.41;;;;;;;11.52;61.29;100592.94;457114;116;923583;-78
2022/09/22 01:21:38;;;;;;;4.51;3.88;;;;;;;11.51;61.25;100600.29;457159;113;922608;-78
2022/09/22 01:22:54;;;;;;;3.96;3.66;;;;;;;11.50;61.22;100595.04;456879;115;923022;-78
2022/09/22 01:24:21;;;;;;;3.74;3.47;;;;;;;11.48;61.24;100597.14;457115;116;922455;-77
2022/09/22 01:25:52;;;;;;;4.19;3.83;;;;;;;11.46;61.18;100600.11;457013;114;922668;-77
2022/09/22 01:27:17;;;;;;;3.78;3.54;;;;;;;11.43;61.22;100594.23;449589;118;923038;-77
2022/09/22 01:28:32;;;;;;;3.88;3.58;;;;;;;11.38;61.11;100586.71;448750;117;922487;-77
2022/09/22 01:29:39;;;;;;;3.89;3.59;;;;;;;11.33;61.10;100588.42;450123;116;922935;-77
2022/09/22 01:31:05;;;;;;;3.93;3.63;;;;;;;11.27;61.21;100588.25;457189;116;922613;-77
2022/09/22 01:32:17;;;;;;;3.78;3.49;;;;;;;11.25;61.27;100587.62;449398;118;923102;-77
2022/09/22 01:33:27;;;;;;;3.66;3.33;;;;;;;11.20;61.35;100590.17;449316;117;922512;-78
2022/09/22 01:34:36;;;;;;;3.38;3.08;;;;;;;11.19;61.50;100590.41;449398;114;922611;-77
2022/09/22 01:35:49;;;;;;;3.13;2.92;;;;;;;11.19;61.65;100588.49;449208;116;922609;-77
2022/09/22 01:37:08;;;;;;;3.15;2.88;;;;;;;11.20;61.70;100586.60;449361;117;923383;-77
2022/09/22 01:38:29;;;;;;;3.71;2.69;;;;;;;11.20;61.75;100578.42;449402;118;922513;-78
2022/09/22 01:39:35;;;;;;;3.13;2.89;;;;;;;11.20;61.80;100581.98;448896;118;922559;-77
2022/09/22 01:40:58;;;;;;;3.47;3.16;;;;;;;11.19;61.75;100588.49;449042;116;922435;-78
2022/09/22 01:42:08;;;;;;;3.76;3.07;;;;;;;11.18;61.81;100586.84;449346;117;922635;-78
2022/09/22 01:43:17;;;;;;;3.42;3.12;;;;;;;11.17;61.80;100590.63;448886;118;922525;-77
2022/09/22 01:44:36;;;;;;;3.37;3.07;;;;;;;11.14;61.86;100582.86;445315;118;931197;-78
2022/09/22 01:45:43;;;;;;;3.76;3.34;;;;;;;11.13;61.79;100591.28;449467;118;922598;-78
2022/09/22 01:46:50;;;;;;;3.22;3.02;;;;;;;11.10;61.80;100586.25;449437;118;923047;-78
2022/09/22 01:47:59;;;;;;;3.23;2.88;;;;;;;11.07;61.77;100590.27;449185;117;923020;-78
2022/09/22 01:49:08;;;;;;;3.49;2.97;;;;;;;11.05;61.68;100589.63;449238;117;922555;-78
2022/09/22 01:50:30;;;;;;;3.77;3.47;;;;;;;11.03;61.68;100585.44;449431;118;922585;-78
2022/09/22 01:51:45;;;;;;;3.08;2.85;;;;;;;11.01;61.82;100585.67;449470;118;922567;-78
2022/09/22 01:52:51;;;;;;;3.35;2.96;;;;;;;11.00;61.82;100586.72;449445;118;922431;-78
2022/09/22 01:53:58;;;;;;;3.53;3.01;;;;;;;10.99;61.76;100593.23;449457;118;922498;-78
2022/09/22 01:55:10;;;;;;;3.73;3.08;;;;;;;10.98;61.82;100585.25;449357;117;922623;-78
2022/09/22 01:56:16;;;;;;;3.33;3.12;;;;;;;10.98;61.94;100591.55;449012;116;922690;-78
2022/09/22 01:57:41;;;;;;;3.48;2.96;;;;;;;11.00;61.96;100588.61;449442;118;922821;-78
2022/09/22 01:58:51;;;;;;;3.21;2.94;;;;;;;11.01;62.02;100591.12;448928;117;922653;-78
2022/09/22 01:59:57;;;;;;;3.04;2.83;;;;;;;11.03;62.12;100596.34;449451;118;923041;-78
2022/09/22 02:01:16;;;;;;;3.04;2.83;;;;;;;11.05;62.18;100595.09;449362;116;922925;-79
2022/09/22 02:02:29;;;;;;;3.44;3.18;;;;;;;11.08;62.22;100596.56;449462;118;923435;-78
2022/09/22 02:03:35;;;;;;;2.69;2.49;;;;;;;11.10;62.22;100598.00;449007;117;922532;-78
2022/09/22 02:04:45;;;;;;;2.83;2.63;;;;;;;11.12;62.03;100604.09;449444;117;922625;-78
2022/09/22 02:05:57;;;;;;;2.73;2.53;;;;;;;11.13;61.98;100602.20;449232;116;923011;-78
2022/09/22 02:07:04;;;;;;;2.70;2.20;;;;;;;11.12;61.94;100604.09;449474;118;922469;-78
2022/09/22 02:08:10;;;;;;;2.85;2.09;;;;;;;11.13;61.95;100607.66;449204;117;922632;-78
2022/09/22 02:09:17;;;;;;;2.17;2.01;;;;;;;11.16;61.97;100599.86;449454;118;922632;-78
2022/09/22 02:10:23;;;;;;;2.01;1.84;;;;;;;11.17;61.92;100601.54;449440;116;922605;-78
2022/09/22 02:11:26;;;;;;;2.12;2.02;;;;;;;11.19;61.80;100601.33;449422;118;922512;-78
2022/09/22 02:12:29;;;;;;;2.16;2.01;;;;;;;11.19;61.69;100599.41;449647;118;922593;-78
2022/09/22 02:13:32;;;;;;;2.26;2.03;;;;;;;11.20;61.65;100603.82;449626;117;922684;-78
2022/09/22 02:14:35;;;;;;;2.09;1.89;;;;;;;11.20;61.42;100601.09;449610;117;923010;-78
2022/09/22 02:17:00;;;;;;;1.96;1.68;;;;;;;11.19;61.23;100602.14;457325;116;922580;-78
2022/09/22 02:18:07;;;;;;;2.22;2.03;;;;;;;11.17;61.15;100593.36;457434;116;922462;-78
2022/09/22 02:19:28;;;;;;;2.13;1.94;;;;;;;11.16;61.12;100602.59;457256;116;930377;-78
2022/09/22 02:20:32;;;;;;;3.40;1.71;;;;;;;11.15;61.17;100598.18;457262;116;922469;-78
2022/09/22 02:21:35;;;;;;;2.38;2.18;;;;;;;11.16;61.16;100597.13;457386;116;922765;-78
2022/09/22 02:22:39;;;;;;;1.88;1.78;;;;;;;11.16;61.23;100588.11;457327;116;922924;-77
2022/09/22 02:23:44;;;;;;;2.06;1.95;;;;;;;11.16;61.07;100593.56;457415;115;923014;-76
2022/09/22 02:24:47;;;;;;;1.72;1.62;;;;;;;11.17;61.05;100597.97;457200;116;922614;-78
2022/09/22 02:25:52;;;;;;;1.98;1.74;;;;;;;11.16;61.04;100585.38;456891;114;923114;-78
2022/09/22 02:26:58;;;;;;;2.15;1.89;;;;;;;11.16;60.96;100591.67;455499;115;922554;-78
2022/09/22 02:28:01;;;;;;;2.53;2.24;;;;;;;11.15;60.87;100595.45;455343;116;923160;-78
2022/09/22 02:29:08;;;;;;;2.59;2.09;;;;;;;11.14;60.79;100593.77;455476;116;922558;-78
2022/09/22 02:30:12;;;;;;;2.56;2.34;;;;;;;11.12;60.62;100600.52;455268;116;930461;-78
2022/09/22 02:31:15;;;;;;;2.42;2.22;;;;;;;11.07;60.49;100598.45;455306;116;922977;-78
2022/09/22 02:32:21;;;;;;;2.26;2.07;;;;;;;11.03;60.44;100601.80;454964;116;930413;-78
2022/09/22 02:33:26;;;;;;;1.96;1.74;;;;;;;10.99;60.50;100604.14;455427;116;922670;-77
2022/09/22 02:34:29;;;;;;;2.09;1.99;;;;;;;10.94;60.45;100605.84;448154;116;922567;-78
2022/09/22 02:35:36;;;;;;;2.62;2.40;;;;;;;10.90;60.35;100604.61;447731;118;922470;-78
2022/09/22 02:36:48;;;;;;;2.70;2.41;;;;;;;10.85;60.43;100611.56;447595;118;922623;-77
2022/09/22 02:38:06;;;;;;;2.57;2.37;;;;;;;10.81;60.38;100601.27;432195;122;922896;-78
2022/09/22 02:39:16;;;;;;;2.30;2.08;;;;;;;10.76;60.42;100601.08;445754;118;922586;-76
2022/09/22 02:40:31;;;;;;;2.61;2.40;;;;;;;10.71;60.57;100609.91;447686;118;922497;-78
2022/09/22 02:41:47;;;;;;;3.04;2.48;;;;;;;10.68;60.86;100602.18;447632;118;922962;-78
2022/09/22 02:43:02;;;;;;;2.73;2.44;;;;;;;10.68;61.09;100606.80;442124;118;923123;-78
2022/09/22 02:44:21;;;;;;;2.63;2.47;;;;;;;10.70;61.31;100612.84;447620;118;923100;-78
2022/09/22 02:45:34;;;;;;;3.12;2.82;;;;;;;10.71;61.43;100609.91;447565;118;922530;-78
2022/09/22 02:46:43;;;;;;;2.84;2.16;;;;;;;10.71;61.27;100609.91;447165;118;923157;-78
2022/09/22 02:48:00;;;;;;;3.57;2.81;;;;;;;10.69;61.26;100614.77;447569;118;923100;-78
2022/09/22 02:49:04;;;;;;;2.68;2.48;;;;;;;10.67;61.25;100611.41;447215;118;922801;-76
2022/09/22 02:50:11;;;;;;;4.82;2.79;;;;;;;10.65;61.29;100609.93;447680;118;922787;-77
2022/09/22 02:51:14;;;;;;;3.28;2.47;;;;;;;10.63;61.17;100612.89;447542;118;923007;-76
2022/09/22 02:52:20;;;;;;;2.76;2.56;;;;;;;10.60;61.12;100615.19;455306;114;923191;-76
2022/09/22 02:53:23;;;;;;;3.34;3.04;;;;;;;10.56;61.09;100612.06;463478;114;922493;-77
2022/09/22 02:54:25;;;;;;;2.92;2.64;;;;;;;10.54;61.16;100613.31;463706;114;922535;-76
2022/09/22 02:55:28;;;;;;;2.69;2.49;;;;;;;10.51;61.24;100614.60;463680;114;923088;-77
2022/09/22 02:56:32;;;;;;;4.00;3.02;;;;;;;10.50;61.28;100609.35;463652;114;922977;-76
2022/09/22 02:57:35;;;;;;;3.30;3.02;;;;;;;10.48;61.33;100616.89;463576;114;923088;-76
2022/09/22 02:58:38;;;;;;;4.22;3.12;;;;;;;10.45;61.43;100612.73;463687;114;923150;-76
2022/09/22 02:59:40;;;;;;;4.35;3.27;;;;;;;10.43;61.41;100618.38;463689;114;923286;-76
2022/09/22 03:00:44;;;;;;;3.06;2.74;;;;;;;10.42;61.48;100613.13;463708;114;922853;-76
2022/09/22 03:01:48;;;;;;;4.34;3.46;;;;;;;10.41;61.50;100617.78;463585;114;922552;-76
2022/09/22 03:02:51;;;;;;;2.95;2.71;;;;;;;10.40;61.56;100624.27;463554;114;922527;-77
2022/09/22 03:03:54;;;;;;;3.52;2.87;;;;;;;10.39;61.70;100614.41;463701;114;923218;-76
2022/09/22 03:04:57;;;;;;;2.96;2.61;;;;;;;10.40;61.70;100613.37;463658;114;923010;-76
2022/09/22 03:06:00;;;;;;;2.94;2.71;;;;;;;10.40;61.79;100613.37;463693;114;923005;-76
2022/09/22 03:07:03;;;;;;;3.22;2.88;;;;;;;10.41;61.82;100614.20;463676;114;922689;-78
2022/09/22 03:08:06;;;;;;;4.77;3.16;;;;;;;10.41;61.83;100612.33;463666;114;922970;-77
2022/09/22 03:09:09;;;;;;;3.42;3.15;;;;;;;10.42;61.86;100610.41;463717;114;923151;-80
2022/09/22 03:10:12;;;;;;;3.89;3.59;;;;;;;10.41;61.93;100604.14;463649;114;922539;-77
2022/09/22 03:11:15;;;;;;;4.87;4.12;;;;;;;10.42;61.95;100611.25;463578;114;922516;-76
2022/09/22 03:12:18;;;;;;;3.97;3.65;;;;;;;10.42;61.85;100607.69;463658;114;922566;-76
2022/09/22 03:13:21;;;;;;;5.28;4.02;;;;;;;10.42;61.82;100610.41;463680;114;922492;-76
2022/09/22 03:14:23;;;;;;;5.23;4.21;;;;;;;10.39;62.00;100602.67;463673;114;922450;-78
2022/09/22 03:15:26;;;;;;;4.16;3.79;;;;;;;10.40;61.97;100607.08;462297;114;922694;-78
2022/09/22 03:16:29;;;;;;;4.18;3.81;;;;;;;10.39;62.07;100606.23;455524;116;923300;-77
2022/09/22 03:17:33;;;;;;;3.88;3.53;;;;;;;10.41;62.23;100600.58;455564;116;922408;-77
2022/09/22 03:18:35;;;;;;;4.90;4.13;;;;;;;10.43;62.35;100606.64;455576;116;922620;-77
2022/09/22 03:19:38;;;;;;;4.17;3.76;;;;;;;10.45;62.38;100604.55;455611;116;922582;-77
2022/09/22 03:20:42;;;;;;;4.05;3.72;;;;;;;10.45;62.26;100599.94;455611;116;922999;-77
2022/09/22 03:21:44;;;;;;;6.20;4.65;;;;;;;10.45;62.20;100601.82;455539;116;922601;-77
2022/09/22 03:22:48;;;;;;;4.99;3.83;;;;;;;10.44;62.22;100614.61;455572;116;922601;-77
2022/09/22 03:23:50;;;;;;;4.63;4.21;;;;;;;10.43;62.19;100610.20;455597;116;922568;-77
2022/09/22 03:24:54;;;;;;;5.24;3.97;;;;;;;10.41;62.10;100606.87;455576;116;922928;-77
2022/09/22 03:25:57;;;;;;;3.52;3.22;;;;;;;10.39;62.08;100599.95;455608;116;922603;-77
2022/09/22 03:27:00;;;;;;;5.87;3.77;;;;;;;10.37;62.14;100602.87;456591;115;922817;-77
2022/09/22 03:28:03;;;;;;;3.96;3.49;;;;;;;10.37;62.27;100604.76;457364;115;922478;-77
2022/09/22 03:29:06;;;;;;;3.89;3.57;;;;;;;10.36;62.39;100606.68;457373;115;922921;-77
2022/09/22 03:30:10;;;;;;;5.67;3.68;;;;;;;10.37;62.49;100600.15;455396;115;922544;-78
2022/09/22 03:31:13;;;;;;;4.98;4.48;;;;;;;10.40;62.61;100599.73;454928;113;922590;-76
2022/09/22 03:32:16;;;;;;;3.41;3.12;;;;;;;10.42;62.61;100608.52;457371;116;922871;-77
2022/09/22 03:33:19;;;;;;;4.24;3.78;;;;;;;10.44;62.56;100598.25;457363;115;922477;-78
2022/09/22 03:34:22;;;;;;;4.49;3.49;;;;;;;10.44;62.48;100592.80;464607;113;922909;-78
2022/09/22 03:35:25;;;;;;;3.54;3.22;;;;;;;10.44;62.40;100590.08;466441;113;922630;-77
2022/09/22 03:36:27;;;;;;;3.81;2.97;;;;;;;10.43;62.36;100593.84;466469;113;922488;-77
2022/09/22 03:37:32;;;;;;;4.42;3.76;;;;;;;10.42;62.30;100592.17;466474;113;922927;-77
2022/09/22 03:38:35;;;;;;;4.81;3.32;;;;;;;10.40;62.21;100588.84;466367;113;923108;-78
2022/09/22 03:39:38;;;;;;;3.71;3.41;;;;;;;10.39;62.23;100598.06;466554;113;923000;-77
2022/09/22 03:40:44;;;;;;;3.28;2.99;;;;;;;10.38;62.24;100592.81;466504;113;922857;-77
2022/09/22 03:41:49;;;;;;;4.16;3.12;;;;;;;10.36;62.16;100606.68;465820;113;922627;-77
2022/09/22 03:42:52;;;;;;;3.85;3.39;;;;;;;10.35;62.13;100606.87;466395;113;922879;-78
2022/09/22 03:43:54;;;;;;;3.69;3.39;;;;;;;10.33;62.08;100611.69;466401;113;930482;-76
2022/09/22 03:44:58;;;;;;;7.07;3.09;;;;;;;10.31;62.10;100603.72;466485;113;922487;-76
2022/09/22 03:46:01;;;;;;;4.11;3.04;;;;;;;10.31;62.09;100611.09;466466;113;922684;-76
2022/09/22 03:47:04;;;;;;;4.08;3.26;;;;;;;10.30;62.08;100604.80;466359;113;922497;-76
2022/09/22 03:48:07;;;;;;;3.86;3.47;;;;;;;10.29;62.01;100605.00;466481;113;922832;-77
2022/09/22 03:49:10;;;;;;;3.28;2.96;;;;;;;10.28;62.01;100611.50;466473;113;922418;-78
2022/09/22 03:50:14;;;;;;;4.61;3.39;;;;;;;10.27;61.95;100618.83;466406;113;922968;-77
2022/09/22 03:51:18;;;;;;;5.28;2.92;;;;;;;10.26;61.94;100617.15;466450;113;922534;-78
2022/09/22 03:52:21;;;;;;;3.91;3.59;;;;;;;10.25;61.97;100614.66;460530;113;922524;-77
2022/09/22 03:53:24;;;;;;;3.84;3.53;;;;;;;10.26;61.95;100621.77;446284;118;922584;-77
2022/09/22 03:54:27;;;;;;;3.61;2.92;;;;;;;10.25;61.94;100617.39;446722;116;922734;-77
2022/09/22 03:55:30;;;;;;;3.78;3.36;;;;;;;10.25;62.00;100620.95;455587;116;922532;-77
2022/09/22 03:56:33;;;;;;;3.50;3.19;;;;;;;10.26;62.10;100616.31;455640;116;923125;-77
2022/09/22 03:57:36;;;;;;;4.94;3.75;;;;;;;10.28;62.16;100620.52;455613;116;922484;-76
2022/09/22 03:58:39;;;;;;;3.58;3.27;;;;;;;10.31;62.30;100611.90;455656;116;923010;-77
2022/09/22 03:59:42;;;;;;;4.67;3.54;;;;;;;10.35;62.34;100617.78;455646;116;922919;-77
2022/09/22 04:00:45;;;;;;;4.89;3.43;;;;;;;10.39;62.40;100622.59;455630;116;922519;-77
2022/09/22 04:01:48;;;;;;;3.56;3.14;;;;;;;10.42;62.42;100622.16;455674;116;922480;-75
2022/09/22 04:02:51;;;;;;;3.91;3.02;;;;;;;10.47;62.37;100617.97;455686;116;923023;-76
2022/09/22 04:03:53;;;;;;;3.74;3.22;;;;;;;10.51;62.46;100622.78;455667;116;923015;-76
2022/09/22 04:04:56;;;;;;;5.28;3.43;;;;;;;10.55;62.36;100615.00;455617;116;923311;-76
2022/09/22 04:06:00;;;;;;;4.19;3.26;;;;;;;10.60;62.33;100618.77;455602;116;922559;-76
2022/09/22 04:07:03;;;;;;;3.46;3.16;;;;;;;10.63;62.24;100617.51;455592;116;923040;-76
2022/09/22 04:08:08;;;;;;;4.42;2.91;;;;;;;10.66;62.16;100623.36;455361;116;923099;-76
2022/09/22 04:09:10;;;;;;;3.27;2.87;;;;;;;10.69;62.00;100624.84;455607;116;922977;-78
2022/09/22 04:10:13;;;;;;;4.01;2.74;;;;;;;10.71;61.91;100625.44;455579;116;923114;-77
2022/09/22 04:11:16;;;;;;;4.08;3.11;;;;;;;10.73;61.82;100631.53;455587;116;922509;-77
2022/09/22 04:12:19;;;;;;;4.01;2.68;;;;;;;10.74;61.75;100633.20;455607;116;922768;-75
2022/09/22 04:13:22;;;;;;;3.16;2.92;;;;;;;10.76;61.68;100628.36;455618;116;922955;-75
2022/09/22 04:14:25;;;;;;;2.91;2.71;;;;;;;10.78;61.58;100637.17;455881;116;923002;-79
2022/09/22 04:15:28;;;;;;;2.83;2.56;;;;;;;10.77;61.29;100624.58;457565;115;922654;-77
2022/09/22 04:16:31;;;;;;;3.75;2.94;;;;;;;10.77;61.13;100630.03;458292;115;922894;-77
2022/09/22 04:17:35;;;;;;;3.37;2.78;;;;;;;10.75;60.91;100632.16;458296;115;922569;-78
2022/09/22 04:18:39;;;;;;;2.67;2.36;;;;;;;10.72;60.74;100630.69;458132;115;922615;-79
2022/09/22 04:19:42;;;;;;;2.59;2.41;;;;;;;10.69;60.57;100639.31;458139;115;930320;-75
2022/09/22 04:20:45;;;;;;;3.37;2.47;;;;;;;10.65;60.24;100634.47;458193;115;930218;-75
2022/09/22 04:21:48;;;;;;;4.21;2.68;;;;;;;10.59;60.11;100640.78;458289;115;923004;-77
2022/09/22 04:22:52;;;;;;;3.17;2.78;;;;;;;10.55;60.08;100639.53;458018;115;922518;-78
2022/09/22 04:23:55;;;;;;;3.37;2.58;;;;;;;10.51;60.07;100633.69;458292;115;923030;-77
2022/09/22 04:24:59;;;;;;;2.49;2.33;;;;;;;10.48;60.09;100641.43;458309;115;922669;-77
2022/09/22 04:26:03;;;;;;;5.27;2.91;;;;;;;10.46;60.07;100644.39;458164;115;922895;-77
2022/09/22 04:27:06;;;;;;;3.19;2.58;;;;;;;10.45;60.25;100638.09;457861;115;930579;-76
2022/09/22 04:28:11;;;;;;;3.16;2.84;;;;;;;10.47;60.33;100640.63;457304;116;922512;-77
2022/09/22 04:29:14;;;;;;;3.21;2.90;;;;;;;10.50;60.34;100642.06;457526;116;922653;-77
2022/09/22 04:30:17;;;;;;;3.00;2.80;;;;;;;10.51;60.30;100646.47;456077;116;922975;-77
2022/09/22 04:31:20;;;;;;;2.86;2.68;;;;;;;10.51;60.15;100641.86;456314;116;922884;-77
2022/09/22 04:32:23;;;;;;;3.12;2.83;;;;;;;10.52;60.08;100642.70;457481;114;923070;-77
2022/09/22 04:33:26;;;;;;;2.72;2.52;;;;;;;10.52;60.06;100648.16;457512;115;923028;-77
2022/09/22 04:34:29;;;;;;;3.03;2.85;;;;;;;10.51;60.02;100647.31;465058;114;922545;-77
2022/09/22 04:35:32;;;;;;;3.14;2.75;;;;;;;10.51;60.03;100649.20;465646;114;922960;-77
2022/09/22 04:36:35;;;;;;;3.41;2.74;;;;;;;10.51;60.06;100651.92;465593;114;923171;-77
2022/09/22 04:37:37;;;;;;;2.90;2.67;;;;;;;10.50;60.04;100650.24;465617;114;923026;-77
2022/09/22 04:38:40;;;;;;;3.26;2.93;;;;;;;10.47;59.90;100656.98;465619;114;922453;-77
2022/09/22 04:39:43;;;;;;;2.86;2.66;;;;;;;10.44;59.74;100658.23;465640;114;922911;-77
2022/09/22 04:40:48;;;;;;;3.69;3.39;;;;;;;10.42;59.69;100668.48;465593;114;922571;-77
2022/09/22 04:41:51;;;;;;;3.51;3.25;;;;;;;10.39;59.68;100668.92;465383;114;922872;-77
2022/09/22 04:42:54;;;;;;;4.36;3.25;;;;;;;10.36;59.77;100674.81;465623;114;922539;-77
2022/09/22 04:43:57;;;;;;;3.83;3.18;;;;;;;10.34;59.70;100681.52;465502;114;923005;-77
2022/09/22 04:45:00;;;;;;;3.59;3.28;;;;;;;10.31;59.66;100679.22;465558;114;922510;-77
2022/09/22 04:46:03;;;;;;;3.66;3.33;;;;;;;10.28;59.66;100680.47;465608;114;922485;-77
2022/09/22 04:47:06;;;;;;;3.70;3.42;;;;;;;10.24;59.71;100687.39;465625;114;922487;-75
2022/09/22 04:48:09;;;;;;;4.72;4.32;;;;;;;10.23;59.80;100684.87;465575;114;922544;-78
2022/09/22 04:49:13;;;;;;;4.22;3.74;;;;;;;10.22;59.88;100686.75;465618;114;922448;-77
2022/09/22 04:50:19;;;;;;;4.57;3.72;;;;;;;10.21;60.01;100685.07;465511;114;922826;-77
2022/09/22 04:51:22;;;;;;;4.26;3.79;;;;;;;10.22;60.09;100683.19;465394;114;922379;-79
2022/09/22 04:52:25;;;;;;;4.26;3.96;;;;;;;10.22;60.15;100686.75;460302;114;922853;-77
2022/09/22 04:53:28;;;;;;;4.40;4.05;;;;;;;10.23;60.15;100682.14;456998;116;923222;-78
2022/09/22 04:54:31;;;;;;;5.11;4.71;;;;;;;10.23;60.24;100687.59;457018;116;922383;-77
2022/09/22 04:55:34;;;;;;;5.01;4.56;;;;;;;10.22;60.28;100684.03;457032;116;922604;-77
2022/09/22 04:56:37;;;;;;;4.53;4.14;;;;;;;10.21;60.35;100687.80;457106;116;922631;-78
2022/09/22 04:57:41;;;;;;;4.71;4.22;;;;;;;10.21;60.39;100685.07;457025;116;922426;-77
2022/09/22 04:58:44;;;;;;;5.76;5.26;;;;;;;10.22;60.45;100675.02;456981;116;922826;-78
2022/09/22 04:59:47;;;;;;;5.61;4.92;;;;;;;10.23;60.43;100684.87;457047;116;922707;-78
2022/09/22 05:00:50;;;;;;;5.62;5.08;;;;;;;10.22;60.48;100675.02;457092;116;922846;-78
2022/09/22 05:01:54;;;;;;;4.59;4.19;;;;;;;10.22;60.61;100672.28;456947;116;922979;-78
2022/09/22 05:02:57;;;;;;;4.65;4.25;;;;;;;10.21;60.70;100681.50;456989;116;930566;-78
2022/09/22 05:04:00;;;;;;;4.96;4.50;;;;;;;10.22;60.83;100675.86;457017;116;922496;-78
2022/09/22 05:05:04;;;;;;;5.53;4.60;;;;;;;10.24;61.06;100671.05;457064;116;922656;-78